Time;durP1;ratioP1;P1;durP2;ratioP2;P2;SDS_P1;SDS_P2;PMS_P1;PMS_P2;Temp;Humidity;BMP_temperature;BMP_pressure;BME280_temperature;BME280_humidity;BME280_pressure;Samples;Min_cycle;Max_cycle;Signal;HPM_P1;HPM_P2
2021/08/10 00:01:21;;;;;;;3.67;2.70;;;19.50;99.90;;;;;;5056928;28;20178;-58
2021/08/10 00:03:46;;;;;;;2.50;2.30;;;19.40;99.90;;;;;;5056452;28;20659;-63
2021/08/10 00:06:12;;;;;;;2.57;2.33;;;19.40;99.90;;;;;;5056464;28;20642;-55
2021/08/10 00:08:37;;;;;;;2.50;2.30;;;19.40;99.90;;;;;;5056427;28;20198;-60
2021/08/10 00:11:03;;;;;;;3.07;2.57;;;19.40;99.90;;;;;;5056785;28;20258;-61
2021/08/10 00:13:28;;;;;;;3.03;2.50;;;19.30;99.90;;;;;;5056038;28;20227;-55
2021/08/10 00:15:54;;;;;;;3.97;2.63;;;19.30;99.90;;;;;;5056831;28;20178;-60
2021/08/10 00:18:20;;;;;;;4.17;2.67;;;19.30;99.90;;;;;;5056090;28;20685;-65
2021/08/10 00:20:46;;;;;;;3.47;2.80;;;19.20;99.90;;;;;;5056970;28;20181;-59
2021/08/10 00:23:12;;;;;;;2.63;2.33;;;19.20;99.90;;;;;;5055820;28;20207;-65
2021/08/10 00:25:38;;;;;;;4.67;2.63;;;19.20;99.90;;;;;;5056079;28;20167;-63
2021/08/10 00:28:04;;;;;;;4.47;2.70;;;19.20;99.90;;;;;;5056465;28;20232;-60
2021/08/10 00:30:30;;;;;;;3.90;2.90;;;19.10;99.90;;;;;;5056488;28;20192;-64
2021/08/10 00:32:55;;;;;;;4.03;3.00;;;19.10;99.90;;;;;;5056224;28;20268;-61
2021/08/10 00:35:21;;;;;;;3.87;2.63;;;19.10;99.90;;;;;;5054912;28;20221;-64
2021/08/10 00:37:47;;;;;;;3.57;2.70;;;19.00;99.90;;;;;;5055503;28;20225;-59
2021/08/10 00:40:14;;;;;;;3.47;2.70;;;19.00;99.90;;;;;;5055556;28;20190;-60
2021/08/10 00:42:40;;;;;;;3.07;2.57;;;18.90;99.90;;;;;;5056146;28;20176;-63
2021/08/10 00:45:07;;;;;;;5.27;2.67;;;18.90;99.90;;;;;;5055781;28;20637;-63
2021/08/10 00:47:32;;;;;;;3.73;2.77;;;18.80;99.90;;;;;;5056289;28;20189;-64
2021/08/10 00:49:58;;;;;;;4.07;2.50;;;18.80;99.90;;;;;;5056041;28;20265;-65
2021/08/10 00:52:23;;;;;;;2.73;2.47;;;18.80;99.90;;;;;;5055770;28;20182;-64
2021/08/10 00:54:49;;;;;;;3.30;2.33;;;18.70;99.90;;;;;;5055539;28;20277;-64
2021/08/10 00:57:15;;;;;;;2.53;2.33;;;19.20;99.90;;;;;;5056084;28;20258;-61
2021/08/10 00:59:40;;;;;;;2.80;2.43;;;18.60;99.90;;;;;;5055543;28;20632;-63
2021/08/10 01:02:06;;;;;;;3.00;2.57;;;18.60;99.90;;;;;;5055277;28;20612;-60
2021/08/10 01:04:34;;;;;;;3.30;2.63;;;18.60;99.90;;;;;;5055939;28;20199;-57
2021/08/10 01:07:26;;;;;;;2.97;2.70;;;18.60;99.90;;;;;;5055812;28;20183;-63
2021/08/10 01:10:11;;;;;;;3.07;2.63;;;18.50;99.90;;;;;;5053115;28;20209;-59
2021/08/10 01:13:14;;;;;;;3.57;3.00;;;18.50;99.90;;;;;;5054978;28;20195;-59
2021/08/10 01:15:46;;;;;;;3.00;2.67;;;18.50;99.90;;;;;;5055809;28;20180;-64
2021/08/10 01:18:34;;;;;;;2.90;2.70;;;18.40;99.90;;;;;;5055599;28;20605;-61
2021/08/10 01:21:20;;;;;;;4.43;2.37;;;18.40;99.90;;;;;;5055283;28;20169;-62
2021/08/10 01:23:52;;;;;;;6.30;2.47;;;18.40;99.90;;;;;;5054799;28;20663;-64
2021/08/10 01:26:50;;;;;;;4.20;2.80;;;18.20;99.90;;;;;;5055355;28;20191;-57
2021/08/10 01:29:34;;;;;;;2.87;2.50;;;18.20;99.90;;;;;;5055056;28;20229;-52
2021/08/10 01:32:02;;;;;;;2.87;2.57;;;18.20;99.90;;;;;;5055335;28;20180;-63
2021/08/10 01:34:40;;;;;;;2.90;2.47;;;18.10;99.90;;;;;;5054784;28;20212;-59
2021/08/10 01:37:10;;;;;;;3.23;2.50;;;18.10;99.90;;;;;;5055566;28;20255;-65
2021/08/10 01:39:39;;;;;;;2.40;2.20;;;18.10;99.90;;;;;;5054778;28;20635;-60
2021/08/10 01:42:06;;;;;;;5.50;2.60;;;18.10;99.90;;;;;;5054475;28;20183;-59
2021/08/10 01:44:33;;;;;;;3.07;2.70;;;18.10;99.90;;;;;;5054772;28;20296;-57
2021/08/10 01:47:00;;;;;;;3.17;2.30;;;18.10;99.90;;;;;;5054575;28;20689;-64
2021/08/10 01:49:27;;;;;;;2.60;2.40;;;18.10;99.90;;;;;;5054368;28;20218;-55
2021/08/10 01:51:56;;;;;;;4.20;2.40;;;18.00;99.90;;;;;;5054409;28;20649;-64
2021/08/10 01:54:24;;;;;;;2.60;2.33;;;18.00;99.90;;;;;;5054495;28;20199;-64
2021/08/10 01:56:50;;;;;;;3.43;2.17;;;18.00;99.90;;;;;;5054352;28;20629;-64
2021/08/10 01:59:20;;;;;;;3.10;2.80;;;17.90;99.90;;;;;;5054038;28;20222;-63
2021/08/10 02:01:47;;;;;;;2.83;2.53;;;17.90;99.90;;;;;;5054285;28;20515;-59
2021/08/10 02:04:16;;;;;;;4.70;2.60;;;17.90;99.90;;;;;;5054676;28;20194;-63
2021/08/10 02:06:42;;;;;;;4.10;2.63;;;17.90;99.90;;;;;;5054941;28;20256;-64
2021/08/10 02:09:08;;;;;;;4.30;2.50;;;17.90;99.90;;;;;;5054165;28;20269;-59
2021/08/10 02:11:35;;;;;;;2.97;2.50;;;17.90;99.90;;;;;;5053892;28;20234;-64
2021/08/10 02:14:02;;;;;;;4.27;2.80;;;17.80;99.90;;;;;;5054177;28;20245;-61
2021/08/10 02:16:28;;;;;;;5.23;2.93;;;17.90;99.90;;;;;;5054012;28;20179;-56
2021/08/10 02:18:54;;;;;;;4.43;2.50;;;17.90;99.90;;;;;;5054133;28;20290;-52
2021/08/10 02:21:34;;;;;;;4.80;2.63;;;17.70;99.90;;;;;;5053915;28;20198;-61
2021/08/10 02:24:07;;;;;;;2.50;2.30;;;17.60;99.90;;;;;;5054111;28;20200;-55
2021/08/10 02:26:38;;;;;;;11.27;2.40;;;17.50;99.90;;;;;;5054232;28;20262;-64
2021/08/10 02:29:04;;;;;;;3.10;2.37;;;17.60;99.90;;;;;;5053793;28;20160;-58
2021/08/10 02:31:31;;;;;;;7.90;2.83;;;17.60;99.90;;;;;;5053632;28;20206;-57
2021/08/10 02:33:57;;;;;;;4.83;2.70;;;17.60;99.90;;;;;;5054001;28;20191;-64
2021/08/10 02:36:24;;;;;;;2.50;2.30;;;17.60;99.90;;;;;;5054464;28;20203;-63
2021/08/10 02:38:51;;;;;;;3.47;2.90;;;17.60;99.90;;;;;;5054114;28;20203;-63
2021/08/10 02:41:17;;;;;;;2.70;2.50;;;17.50;99.90;;;;;;5053602;28;20167;-62
2021/08/10 02:43:43;;;;;;;3.00;2.70;;;17.50;99.90;;;;;;5054029;28;20183;-57
2021/08/10 02:46:09;;;;;;;3.53;2.70;;;17.50;99.90;;;;;;5053835;28;20175;-59
2021/08/10 02:48:34;;;;;;;4.37;2.90;;;17.50;99.90;;;;;;5053587;28;20185;-61
2021/08/10 02:51:00;;;;;;;3.40;2.80;;;17.50;99.90;;;;;;5054322;28;20179;-63
2021/08/10 02:53:26;;;;;;;3.10;2.70;;;17.50;99.90;;;;;;5053233;28;20229;-64
2021/08/10 02:56:04;;;;;;;3.27;2.70;;;17.50;99.90;;;;;;5054293;28;20191;-57
2021/08/10 02:58:33;;;;;;;2.97;2.43;;;17.40;99.90;;;;;;5053596;28;20560;-64
2021/08/10 03:01:04;;;;;;;2.80;2.23;;;17.40;99.90;;;;;;5058248;28;20619;-63
2021/08/10 03:03:32;;;;;;;3.30;2.83;;;17.40;99.90;;;;;;5057538;28;20191;-60
2021/08/10 03:05:59;;;;;;;5.43;2.80;;;17.30;99.90;;;;;;5057634;28;20175;-64
2021/08/10 03:08:31;;;;;;;3.67;2.67;;;17.30;99.90;;;;;;5057491;28;20203;-64
2021/08/10 03:10:57;;;;;;;4.77;2.60;;;17.40;99.90;;;;;;5058128;28;20160;-64
2021/08/10 03:13:30;;;;;;;2.73;2.10;;;17.30;99.90;;;;;;5057343;28;20605;-63
2021/08/10 03:15:57;;;;;;;3.27;2.63;;;17.30;99.90;;;;;;5058132;28;20174;-60
2021/08/10 03:18:28;;;;;;;3.83;2.67;;;17.30;99.90;;;;;;5057361;28;20222;-59
2021/08/10 03:20:59;;;;;;;2.63;2.43;;;17.30;99.90;;;;;;5057451;28;20643;-59
2021/08/10 03:23:26;;;;;;;3.10;2.90;;;17.20;99.90;;;;;;5057415;28;20670;-63
2021/08/10 03:25:53;;;;;;;3.90;2.80;;;17.20;99.90;;;;;;5057221;28;20191;-60
2021/08/10 03:28:20;;;;;;;4.00;2.63;;;17.20;99.90;;;;;;5057842;28;20518;-64
2021/08/10 03:30:47;;;;;;;2.90;2.60;;;17.20;99.90;;;;;;5057053;28;20195;-59
2021/08/10 03:33:14;;;;;;;5.07;2.80;;;17.20;99.90;;;;;;5057158;28;20199;-63
2021/08/10 03:35:43;;;;;;;5.37;2.80;;;17.20;99.90;;;;;;5057533;28;20563;-58
2021/08/10 03:38:09;;;;;;;4.10;2.67;;;17.20;99.90;;;;;;5057617;28;20198;-57
2021/08/10 03:40:37;;;;;;;3.73;2.93;;;17.10;99.90;;;;;;5056862;28;20215;-59
2021/08/10 03:43:04;;;;;;;3.77;2.80;;;17.10;99.90;;;;;;5056715;28;20623;-64
2021/08/10 03:45:29;;;;;;;2.77;2.57;;;17.10;99.90;;;;;;5070687;28;20187;-64
2021/08/10 03:47:56;;;;;;;3.43;2.57;;;17.10;99.90;;;;;;5057405;28;20238;-65
2021/08/10 03:50:23;;;;;;;3.33;2.60;;;17.10;99.90;;;;;;5057426;28;20206;-63
2021/08/10 03:52:49;;;;;;;3.40;2.20;;;17.00;99.90;;;;;;5057118;28;20264;-64
2021/08/10 03:55:15;;;;;;;7.80;2.50;;;16.90;99.90;;;;;;5057343;28;20213;-64
2021/08/10 03:57:43;;;;;;;2.93;2.47;;;16.90;99.90;;;;;;5057335;28;20234;-65
2021/08/10 04:00:10;;;;;;;3.40;2.70;;;17.00;99.90;;;;;;5056856;28;20220;-60
2021/08/10 04:02:38;;;;;;;3.20;2.20;;;17.00;99.90;;;;;;5056159;28;20187;-59
2021/08/10 04:05:04;;;;;;;2.17;1.90;;;17.00;99.90;;;;;;5057191;28;20183;-57
2021/08/10 04:07:32;;;;;;;3.77;2.40;;;17.00;99.90;;;;;;5056407;28;20286;-60
2021/08/10 04:09:59;;;;;;;3.83;2.60;;;17.00;99.90;;;;;;5056065;28;20213;-65
2021/08/10 04:12:24;;;;;;;2.57;2.37;;;17.00;99.90;;;;;;5056590;28;20270;-65
2021/08/10 04:14:50;;;;;;;3.07;2.50;;;17.00;99.90;;;;;;5056433;28;20282;-64
2021/08/10 04:17:17;;;;;;;2.40;2.20;;;16.90;99.90;;;;;;5056167;28;20257;-65
2021/08/10 04:19:46;;;;;;;2.80;2.50;;;17.00;99.90;;;;;;5056908;28;20175;-61
2021/08/10 04:22:13;;;;;;;3.00;2.37;;;16.90;99.90;;;;;;5056033;28;20262;-56
2021/08/10 04:24:39;;;;;;;3.17;2.27;;;16.90;99.90;;;;;;5056883;28;20194;-64
2021/08/10 04:27:05;;;;;;;3.23;2.60;;;16.90;99.90;;;;;;5056386;28;20642;-64
2021/08/10 04:29:30;;;;;;;3.57;2.40;;;16.90;99.90;;;;;;5056323;28;20226;-54
2021/08/10 04:31:56;;;;;;;4.00;2.40;;;16.90;99.90;;;;;;5056002;28;20171;-60
2021/08/10 04:34:21;;;;;;;4.80;2.37;;;16.90;99.90;;;;;;5055880;28;20256;-65
2021/08/10 04:36:47;;;;;;;4.20;2.53;;;17.00;99.90;;;;;;5056611;28;20179;-61
2021/08/10 04:39:12;;;;;;;2.50;2.30;;;16.90;99.90;;;;;;5055766;28;20198;-62
2021/08/10 04:41:38;;;;;;;3.43;2.40;;;17.00;99.90;;;;;;5055768;28;20702;-65
2021/08/10 04:44:06;;;;;;;2.33;2.20;;;16.90;99.90;;;;;;5055724;28;20199;-57
2021/08/10 04:46:31;;;;;;;2.87;2.10;;;17.00;99.90;;;;;;5055874;28;20182;-60
2021/08/10 04:48:57;;;;;;;2.50;1.97;;;17.00;99.90;;;;;;5055620;28;20196;-64
2021/08/10 04:51:22;;;;;;;3.97;2.50;;;17.10;99.90;;;;;;5055627;28;20578;-65
2021/08/10 04:53:48;;;;;;;2.40;2.20;;;17.10;99.90;;;;;;5056056;28;20180;-57
2021/08/10 04:56:13;;;;;;;2.50;2.30;;;17.20;99.90;;;;;;5055713;28;20198;-64
2021/08/10 04:58:39;;;;;;;2.67;2.40;;;17.20;99.90;;;;;;5055484;28;20659;-61
2021/08/10 05:01:05;;;;;;;2.67;2.27;;;17.30;99.90;;;;;;5055684;28;20263;-65
2021/08/10 05:03:31;;;;;;;2.40;2.10;;;17.30;99.90;;;;;;5056055;28;20230;-64
2021/08/10 05:05:57;;;;;;;3.33;2.53;;;17.40;99.90;;;;;;5055342;28;20175;-64
2021/08/10 05:08:23;;;;;;;2.57;2.13;;;17.50;99.90;;;;;;5055762;28;20248;-65
2021/08/10 05:10:49;;;;;;;2.90;2.13;;;17.50;99.90;;;;;;5055521;28;20190;-60
2021/08/10 05:13:15;;;;;;;2.60;2.10;;;17.50;99.90;;;;;;5055288;28;20274;-64
2021/08/10 05:15:41;;;;;;;3.30;2.00;;;17.60;99.90;;;;;;5055822;28;20269;-59
2021/08/10 05:18:07;;;;;;;5.20;2.33;;;17.70;99.90;;;;;;5055070;28;20636;-65
2021/08/10 05:20:32;;;;;;;2.63;2.27;;;17.80;99.90;;;;;;5055675;28;20175;-64
2021/08/10 05:22:58;;;;;;;2.87;2.50;;;17.80;99.90;;;;;;5054248;28;20566;-64
2021/08/10 05:25:24;;;;;;;3.37;2.90;;;17.90;99.90;;;;;;5055318;28;20185;-65
2021/08/10 05:27:49;;;;;;;3.80;2.80;;;17.90;99.90;;;;;;5055229;28;20250;-53
2021/08/10 05:30:15;;;;;;;2.97;2.77;;;17.90;99.90;;;;;;5054624;28;20684;-64
2021/08/10 05:32:41;;;;;;;3.30;3.00;;;17.90;99.90;;;;;;5071208;28;20234;-65
2021/08/10 05:35:07;;;;;;;4.70;3.30;;;18.00;99.90;;;;;;5054790;28;20171;-58
2021/08/10 05:37:34;;;;;;;4.03;3.53;;;18.10;99.90;;;;;;5055070;28;20210;-62
2021/08/10 05:40:01;;;;;;;3.80;2.97;;;18.20;99.90;;;;;;5055365;28;20262;-61
2021/08/10 05:42:26;;;;;;;4.57;3.20;;;18.20;99.90;;;;;;5055355;28;20191;-60
2021/08/10 05:44:52;;;;;;;4.90;3.80;;;18.30;99.90;;;;;;5054980;28;20195;-65
2021/08/10 05:47:18;;;;;;;6.60;3.37;;;18.40;99.90;;;;;;5054784;28;20232;-56
2021/08/10 05:49:43;;;;;;;3.80;3.40;;;18.50;99.90;;;;;;5054341;28;20205;-64
2021/08/10 05:52:08;;;;;;;5.67;3.53;;;18.50;99.90;;;;;;5055104;28;20175;-60
2021/08/10 05:54:35;;;;;;;4.47;2.93;;;18.60;99.90;;;;;;5053913;28;20205;-64
2021/08/10 05:57:01;;;;;;;3.30;2.87;;;18.70;99.90;;;;;;5054888;28;20601;-61
2021/08/10 05:59:26;;;;;;;3.33;3.03;;;18.80;99.90;;;;;;5054541;28;20531;-65
2021/08/10 06:01:52;;;;;;;3.90;3.10;;;18.80;99.90;;;;;;5054189;28;20702;-61
2021/08/10 06:04:18;;;;;;;4.87;3.50;;;19.30;99.90;;;;;;5054210;28;20329;-61
2021/08/10 06:06:43;;;;;;;3.90;3.20;;;19.00;99.90;;;;;;5054760;28;20178;-62
2021/08/10 06:09:09;;;;;;;3.57;2.93;;;19.00;99.90;;;;;;5054218;28;20191;-62
2021/08/10 06:11:35;;;;;;;3.23;2.93;;;19.00;99.90;;;;;;5054161;28;20174;-65
2021/08/10 06:14:02;;;;;;;5.47;2.80;;;19.20;99.90;;;;;;5054223;28;20552;-60
2021/08/10 06:16:28;;;;;;;4.57;3.30;;;19.30;99.90;;;;;;5054619;28;20233;-59
2021/08/10 06:18:54;;;;;;;3.50;3.20;;;19.40;99.90;;;;;;5054714;28;20207;-65
2021/08/10 06:21:20;;;;;;;3.20;2.90;;;19.40;99.90;;;;;;5054833;28;20172;-65
2021/08/10 06:23:45;;;;;;;3.40;3.10;;;19.40;99.90;;;;;;5054281;28;20245;-56
2021/08/10 06:26:11;;;;;;;4.17;3.43;;;19.40;99.90;;;;;;5054048;28;20179;-61
2021/08/10 06:28:37;;;;;;;5.30;3.63;;;19.30;99.90;;;;;;5053562;28;20183;-63
2021/08/10 06:31:04;;;;;;;3.40;3.10;;;19.00;99.90;;;;;;5053871;28;20562;-56
2021/08/10 06:33:29;;;;;;;4.80;3.23;;;18.80;99.90;;;;;;5057231;28;20186;-66
2021/08/10 06:35:55;;;;;;;5.07;3.33;;;19.00;99.90;;;;;;5073859;28;20178;-60
2021/08/10 06:38:20;;;;;;;4.00;3.60;;;19.10;99.90;;;;;;5073835;28;20650;-66
2021/08/10 06:40:46;;;;;;;4.63;3.17;;;19.00;99.90;;;;;;5073902;28;20169;-62
2021/08/10 06:43:12;;;;;;;3.63;3.33;;;19.20;99.90;;;;;;5073695;28;20215;-62
2021/08/10 06:45:37;;;;;;;3.40;3.10;;;19.30;99.90;;;;;;5073670;28;20174;-66
2021/08/10 06:48:03;;;;;;;3.27;2.90;;;19.40;99.90;;;;;;5073761;28;20186;-65
2021/08/10 06:50:29;;;;;;;4.83;3.10;;;19.60;99.90;;;;;;5073648;28;20228;-65
2021/08/10 06:52:55;;;;;;;3.73;3.27;;;19.80;99.90;;;;;;5073430;28;20248;-65
2021/08/10 06:55:20;;;;;;;6.50;2.90;;;19.80;99.90;;;;;;5073914;28;20208;-57
2021/08/10 06:57:46;;;;;;;3.10;2.80;;;19.90;99.90;;;;;;5073986;28;20496;-60
2021/08/10 07:00:12;;;;;;;3.77;2.83;;;20.00;99.90;;;;;;5073365;28;20193;-66
2021/08/10 07:02:38;;;;;;;4.73;2.87;;;20.10;99.90;;;;;;5073809;28;20177;-63
2021/08/10 07:05:04;;;;;;;3.70;3.03;;;20.20;99.90;;;;;;5073794;28;20175;-54
2021/08/10 07:07:29;;;;;;;3.33;2.60;;;20.30;99.90;;;;;;5073661;28;20695;-56
2021/08/10 07:09:55;;;;;;;2.97;2.60;;;20.50;99.90;;;;;;5073650;28;20194;-62
2021/08/10 07:12:20;;;;;;;3.43;2.60;;;20.70;99.90;;;;;;5073777;28;20484;-60
2021/08/10 07:14:46;;;;;;;3.30;3.00;;;21.00;99.90;;;;;;5073450;28;20187;-63
2021/08/10 07:17:12;;;;;;;3.50;3.07;;;21.20;99.90;;;;;;5073063;28;20265;-66
2021/08/10 07:19:37;;;;;;;4.07;2.80;;;21.20;99.90;;;;;;5073552;28;20224;-59
2021/08/10 07:22:03;;;;;;;3.77;2.70;;;21.40;99.90;;;;;;5073015;28;20654;-60
2021/08/10 07:24:29;;;;;;;2.88;2.55;;;21.40;99.90;;;;;;5073553;28;20198;-65
2021/08/10 07:26:54;;;;;;;2.93;2.63;;;21.30;99.90;;;;;;5073754;28;20645;-63
2021/08/10 07:29:20;;;;;;;3.13;2.70;;;21.30;99.90;;;;;;5072734;28;20705;-66
2021/08/10 07:31:46;;;;;;;2.85;2.50;;;21.40;99.90;;;;;;5073359;28;20665;-62
2021/08/10 07:34:12;;;;;;;3.03;2.70;;;21.60;99.90;;;;;;5073922;28;20232;-65
2021/08/10 07:36:37;;;;;;;3.08;2.65;;;21.50;99.90;;;;;;5072023;28;20171;-62
2021/08/10 07:39:05;;;;;;;2.40;2.20;;;21.50;99.90;;;;;;5073200;28;20684;-66
2021/08/10 07:41:31;;;;;;;3.53;3.03;;;21.60;99.90;;;;;;5073071;28;20171;-62
2021/08/10 07:43:56;;;;;;;4.18;3.03;;;21.90;99.90;;;;;;5073028;28;20249;-61
2021/08/10 07:46:22;;;;;;;3.08;2.50;;;22.00;99.90;;;;;;5076509;28;20527;-65
2021/08/10 07:48:47;;;;;;;2.80;2.38;;;22.00;99.90;;;;;;5077511;28;20173;-66
2021/08/10 07:51:13;;;;;;;4.13;2.33;;;22.20;99.90;;;;;;5076738;28;20174;-64
2021/08/10 07:53:39;;;;;;;3.08;2.75;;;22.40;99.90;;;;;;5076994;28;20269;-61
2021/08/10 07:56:05;;;;;;;3.53;2.78;;;22.50;99.90;;;;;;5076621;28;20197;-66
2021/08/10 07:58:31;;;;;;;4.25;2.58;;;22.60;99.90;;;;;;5077172;28;20204;-61
2021/08/10 08:00:56;;;;;;;2.55;2.35;;;22.80;99.90;;;;;;5076569;28;20182;-65
2021/08/10 08:03:23;;;;;;;3.63;2.40;;;22.90;99.90;;;;;;5076413;28;20190;-65
2021/08/10 08:05:48;;;;;;;2.60;2.40;;;23.00;99.90;;;;;;5076844;28;20178;-63
2021/08/10 08:08:14;;;;;;;3.20;2.90;;;23.00;99.90;;;;;;5075927;28;20253;-67
2021/08/10 08:10:40;;;;;;;3.08;2.78;;;23.00;99.90;;;;;;5077296;28;20171;-65
2021/08/10 08:13:06;;;;;;;4.78;2.63;;;23.10;99.90;;;;;;5076584;28;20290;-66
2021/08/10 08:15:33;;;;;;;2.85;2.55;;;23.10;99.90;;;;;;5076423;28;20601;-65
2021/08/10 08:17:59;;;;;;;2.58;2.38;;;23.20;99.90;;;;;;5075130;28;20689;-63
2021/08/10 08:20:24;;;;;;;3.00;2.70;;;23.20;99.90;;;;;;5056149;28;20187;-65
2021/08/10 08:22:50;;;;;;;3.10;2.50;;;23.30;99.90;;;;;;5055799;28;20652;-65
2021/08/10 08:25:15;;;;;;;2.95;2.50;;;23.20;99.90;;;;;;5056361;28;20178;-61
2021/08/10 08:27:41;;;;;;;3.60;2.78;;;23.00;99.90;;;;;;5056419;28;20232;-66
2021/08/10 08:30:08;;;;;;;3.08;2.65;;;23.00;99.90;;;;;;5055866;28;20195;-66
2021/08/10 08:32:33;;;;;;;3.05;2.50;;;23.20;99.90;;;;;;5055724;28;20555;-66
2021/08/10 08:34:59;;;;;;;6.00;2.60;;;23.10;99.90;;;;;;5058445;28;20654;-63
2021/08/10 08:37:24;;;;;;;3.03;2.42;;;23.30;99.90;;;;;;5063857;28;20193;-63
2021/08/10 08:39:50;;;;;;;3.53;2.70;;;23.40;99.90;;;;;;5064864;28;20246;-66
2021/08/10 08:42:15;;;;;;;3.33;2.47;;;23.40;99.90;;;;;;5065046;28;20187;-62
2021/08/10 08:44:41;;;;;;;5.40;2.30;;;23.70;99.90;;;;;;5072575;28;20195;-65
2021/08/10 08:47:09;;;;;;;2.83;2.40;;;23.80;99.90;;;;;;5076297;28;20182;-65
2021/08/10 08:49:36;;;;;;;2.75;2.50;;;24.00;99.90;;;;;;5072706;28;20179;-66
2021/08/10 08:52:05;;;;;;;3.03;2.60;;;24.00;99.90;;;;;;5074408;28;20183;-66
2021/08/10 08:54:34;;;;;;;4.43;2.75;;;24.10;99.90;;;;;;5075232;28;20739;-61
2021/08/10 08:56:59;;;;;;;3.70;2.50;;;24.00;99.90;;;;;;5074993;28;20201;-66
2021/08/10 08:59:25;;;;;;;4.07;2.75;;;23.60;99.90;;;;;;5075214;28;20198;-64
2021/08/10 09:01:52;;;;;;;2.63;2.42;;;23.50;99.90;;;;;;5075724;28;20228;-63
2021/08/10 09:04:19;;;;;;;3.00;2.70;;;23.60;99.90;;;;;;5075532;28;20191;-65
2021/08/10 09:06:45;;;;;;;2.63;2.33;;;23.60;99.90;;;;;;5074819;28;20709;-62
2021/08/10 09:09:21;;;;;;;2.80;2.60;;;23.70;99.90;;;;;;5075100;28;20281;-61
2021/08/10 09:11:53;;;;;;;3.55;2.55;;;23.70;99.90;;;;;;5075176;28;20178;-58
2021/08/10 09:14:20;;;;;;;2.67;2.47;;;23.60;99.90;;;;;;5075111;28;20535;-65
2021/08/10 09:17:02;;;;;;;2.50;2.30;;;23.70;99.90;;;;;;5075664;28;20174;-66
2021/08/10 09:19:49;;;;;;;3.00;2.70;;;23.90;99.90;;;;;;5075450;28;20186;-58
2021/08/10 09:22:31;;;;;;;2.80;2.58;;;24.10;99.90;;;;;;5064663;28;20210;-61
2021/08/10 09:24:59;;;;;;;4.38;2.90;;;24.30;99.90;;;;;;5075307;28;20257;-66
2021/08/10 09:27:39;;;;;;;2.53;2.30;;;24.30;99.90;;;;;;5074824;28;20178;-64
2021/08/10 09:30:10;;;;;;;3.03;2.60;;;24.20;99.90;;;;;;5074754;28;20626;-65
2021/08/10 09:32:57;;;;;;;3.00;2.70;;;24.40;99.90;;;;;;5074373;28;20597;-62
2021/08/10 09:35:37;;;;;;;3.83;2.40;;;24.80;99.90;;;;;;5074811;28;20503;-62
2021/08/10 09:38:04;;;;;;;2.40;2.20;;;25.00;99.90;;;;;;5073608;28;20557;-61
2021/08/10 09:40:41;;;;;;;3.08;2.53;;;25.00;99.90;;;;;;5062714;28;20584;-63
2021/08/10 09:43:28;;;;;;;2.40;2.20;;;25.20;99.90;;;;;;5064539;28;20194;-66
2021/08/10 09:46:14;;;;;;;2.70;2.33;;;25.30;99.90;;;;;;5074354;28;20178;-65
2021/08/10 09:48:57;;;;;;;2.90;2.40;;;25.40;99.90;;;;;;5073609;28;20269;-64
2021/08/10 09:51:27;;;;;;;2.65;2.40;;;25.50;99.90;;;;;;5074361;28;20175;-64
2021/08/10 09:54:05;;;;;;;2.50;2.25;;;25.60;99.90;;;;;;5074204;28;20273;-61
2021/08/10 09:56:58;;;;;;;3.03;2.33;;;25.40;99.90;;;;;;5074550;28;20170;-60
2021/08/10 09:59:27;;;;;;;2.50;2.30;;;25.60;99.90;;;;;;5070377;28;20219;-63
2021/08/10 10:01:56;;;;;;;2.30;2.10;;;25.60;99.90;;;;;;5074295;28;20185;-63
2021/08/10 10:04:31;;;;;;;2.38;2.10;;;25.50;99.90;;;;;;5074021;28;20265;-66
2021/08/10 10:07:08;;;;;;;2.40;2.20;;;25.40;99.90;;;;;;5074396;28;20173;-62
2021/08/10 10:09:34;;;;;;;3.15;2.30;;;25.40;99.90;;;;;;5073818;28;20658;-61
2021/08/10 10:12:01;;;;;;;2.88;2.20;;;25.50;99.90;;;;;;5073674;28;20201;-66
2021/08/10 10:14:28;;;;;;;3.25;2.70;;;25.40;99.90;;;;;;5074144;28;20194;-63
2021/08/10 10:16:57;;;;;;;3.38;2.50;;;25.60;99.90;;;;;;5074483;28;20178;-65
2021/08/10 10:19:22;;;;;;;2.47;2.28;;;26.00;99.90;;;;;;5073890;28;20207;-65
2021/08/10 10:21:51;;;;;;;2.72;2.38;;;26.20;99.90;;;;;;5074084;28;20166;-66
2021/08/10 10:24:19;;;;;;;2.65;2.45;;;26.70;99.90;;;;;;5073898;28;20198;-64
2021/08/10 10:26:50;;;;;;;3.35;2.30;;;27.10;99.90;;;;;;5073985;28;20173;-65
2021/08/10 10:29:16;;;;;;;2.72;2.22;;;27.50;99.90;;;;;;5073911;28;20205;-67
2021/08/10 10:31:43;;;;;;;2.53;2.33;;;27.90;99.90;;;;;;5073900;28;20170;-60
2021/08/10 10:34:12;;;;;;;4.55;2.58;;;28.20;99.90;;;;;;5074030;28;20191;-64
2021/08/10 10:36:43;;;;;;;2.35;2.15;;;28.40;99.90;;;;;;5074707;28;20274;-66
2021/08/10 10:39:09;;;;;;;3.50;2.35;;;28.80;99.90;;;;;;5070097;28;20271;-66
2021/08/10 10:41:36;;;;;;;2.45;2.25;;;28.90;99.90;;;;;;5073756;28;20171;-65
2021/08/10 10:44:02;;;;;;;2.50;2.30;;;28.50;99.90;;;;;;5073267;28;20228;-65
2021/08/10 10:46:33;;;;;;;3.55;2.60;;;28.40;99.90;;;;;;5073625;28;20171;-66
2021/08/10 10:49:01;;;;;;;2.70;2.50;;;28.50;99.90;;;;;;5073811;28;20179;-65
2021/08/10 10:51:35;;;;;;;3.88;2.70;;;28.60;99.90;;;;;;5073119;28;20638;-65
2021/08/10 10:54:25;;;;;;;2.72;2.42;;;28.70;99.90;;;;;;5073471;28;20198;-66
2021/08/10 10:56:52;;;;;;;2.80;2.45;;;28.80;99.90;;;;;;5073655;28;20280;-65
2021/08/10 10:59:29;;;;;;;3.22;2.92;;;28.40;99.90;;;;;;5073392;28;20587;-66
2021/08/10 11:02:11;;;;;;;2.90;2.60;;;28.30;99.90;;;;;;5073513;28;20154;-62
2021/08/10 11:04:37;;;;;;;2.55;2.35;;;28.30;99.90;;;;;;5073909;28;20662;-66
2021/08/10 11:07:39;;;;;;;3.40;2.42;;;28.40;99.90;;;;;;5073555;28;20253;-64
2021/08/10 11:10:23;;;;;;;3.40;2.70;;;28.50;99.90;;;;;;5073231;28;20190;-66
2021/08/10 11:12:49;;;;;;;2.50;2.30;;;28.50;99.90;;;;;;5073006;28;20172;-66
2021/08/10 11:15:22;;;;;;;2.63;2.42;;;28.90;99.90;;;;;;5073384;28;20174;-66
2021/08/10 11:18:09;;;;;;;3.47;2.65;;;29.00;99.90;;;;;;5073268;28;20205;-66
2021/08/10 11:20:40;;;;;;;3.17;2.80;;;29.00;99.90;;;;;;5074901;28;20273;-66
2021/08/10 11:23:22;;;;;;;3.00;2.70;;;28.80;99.90;;;;;;5077331;28;20194;-62
2021/08/10 11:25:57;;;;;;;2.97;2.58;;;28.70;99.90;;;;;;5077124;28;20194;-67
2021/08/10 11:28:51;;;;;;;2.95;2.60;;;28.60;99.90;;;;;;5076918;28;20254;-64
2021/08/10 11:31:37;;;;;;;2.85;2.65;;;28.70;99.90;;;;;;5076531;28;20194;-63
2021/08/10 11:34:22;;;;;;;2.88;2.40;;;28.60;99.90;;;;;;5075114;28;20400;-67
2021/08/10 11:37:24;;;;;;;2.40;2.20;;;28.80;99.90;;;;;;5077212;28;20236;-67
2021/08/10 11:40:09;;;;;;;2.67;2.47;;;28.70;99.90;;;;;;5076827;28;20630;-65
2021/08/10 11:42:35;;;;;;;3.58;2.78;;;28.80;99.90;;;;;;5076880;28;20642;-64
2021/08/10 11:45:03;;;;;;;3.97;2.60;;;28.60;99.90;;;;;;5077095;28;20199;-67
2021/08/10 11:47:29;;;;;;;3.00;2.60;;;28.20;99.90;;;;;;5077234;28;20178;-62
2021/08/10 11:49:54;;;;;;;2.70;2.50;;;28.00;99.90;;;;;;5077071;28;20186;-62
2021/08/10 11:52:21;;;;;;;2.65;2.45;;;28.10;99.90;;;;;;5076326;28;20190;-67
2021/08/10 11:54:59;;;;;;;3.15;2.58;;;28.20;99.90;;;;;;5076572;28;20229;-65
2021/08/10 11:57:25;;;;;;;2.90;2.70;;;28.60;99.90;;;;;;5076539;28;20249;-64
2021/08/10 12:00:11;;;;;;;2.60;2.40;;;29.00;99.90;;;;;;5073091;28;20312;-66
2021/08/10 12:02:43;;;;;;;2.50;2.30;;;29.10;99.90;;;;;;5076680;28;20178;-62
2021/08/10 12:05:09;;;;;;;3.42;2.63;;;28.80;99.90;;;;;;5076544;28;20171;-66
2021/08/10 12:07:35;;;;;;;4.00;2.50;;;28.90;99.90;;;;;;5076460;28;20229;-66
2021/08/10 12:10:03;;;;;;;2.92;2.55;;;29.00;99.90;;;;;;5076346;28;20571;-66
2021/08/10 12:12:33;;;;;;;2.95;2.00;;;29.20;99.90;;;;;;5074244;28;20531;-62
2021/08/10 12:14:59;;;;;;;2.80;2.60;;;29.10;99.90;;;;;;5076128;28;20220;-63
2021/08/10 12:17:25;;;;;;;2.38;2.17;;;28.80;99.90;;;;;;5077356;28;20307;-64
2021/08/10 12:19:50;;;;;;;3.58;2.30;;;28.80;99.90;;;;;;5076890;28;20178;-64
2021/08/10 12:22:21;;;;;;;2.58;2.38;;;28.90;99.90;;;;;;5075202;28;20566;-64
2021/08/10 12:24:49;;;;;;;3.45;2.85;;;29.20;99.90;;;;;;5085704;28;20194;-62
2021/08/10 12:27:16;;;;;;;2.50;2.30;;;29.40;99.60;;;;;;5080208;28;20166;-62
2021/08/10 12:29:48;;;;;;;2.60;2.40;;;29.30;99.90;;;;;;5086673;28;20581;-64
2021/08/10 12:32:27;;;;;;;2.38;2.17;;;29.30;99.90;;;;;;5078935;28;20175;-63
2021/08/10 12:34:53;;;;;;;2.40;2.20;;;29.60;99.90;;;;;;5079942;28;20271;-64
2021/08/10 12:37:39;;;;;;;2.55;2.35;;;29.70;99.90;;;;;;5091603;28;20166;-64
2021/08/10 12:40:06;;;;;;;2.40;2.20;;;29.60;99.90;;;;;;5077545;28;20192;-64
2021/08/10 12:42:37;;;;;;;2.50;2.30;;;29.60;99.90;;;;;;5090479;28;20181;-66
2021/08/10 12:45:03;;;;;;;2.75;2.55;;;29.50;99.90;;;;;;5076635;28;20170;-66
2021/08/10 12:47:36;;;;;;;2.65;2.42;;;29.60;99.90;;;;;;5074833;28;20254;-64
2021/08/10 12:50:20;;;;;;;2.53;2.30;;;29.80;99.90;;;;;;5063807;28;20198;-63
2021/08/10 12:52:47;;;;;;;2.50;2.30;;;30.20;99.90;;;;;;5062968;28;20181;-65
2021/08/10 12:55:13;;;;;;;2.35;2.10;;;30.00;99.90;;;;;;5052780;28;20171;-66
2021/08/10 12:57:39;;;;;;;2.60;2.40;;;30.40;99.90;;;;;;5053767;28;20257;-64